createdAt,value
2018-08-04T00:00:47.628Z,90.10
2018-08-04T00:03:16.871Z,90.20
2018-08-04T00:05:45.947Z,90.20
2018-08-04T00:10:43.881Z,90.10
2018-08-04T00:13:13.231Z,90.10
2018-08-04T00:18:11.215Z,90.10
2018-08-04T00:20:40.352Z,90.10
2018-08-04T00:23:09.560Z,90.20
2018-08-04T00:25:38.811Z,90.20
2018-08-04T00:28:08.095Z,90.40
2018-08-04T00:30:37.309Z,90.50
2018-08-04T00:33:06.578Z,90.50
2018-08-04T00:35:35.828Z,90.60
2018-08-04T00:38:05.186Z,90.60
2018-08-04T00:40:34.572Z,90.60
2018-08-04T00:43:03.905Z,90.50
2018-08-04T00:45:33.128Z,90.60
2018-08-04T00:50:30.961Z,90.60
2018-08-04T00:53:00.252Z,90.60
2018-08-04T00:55:29.566Z,90.60
2018-08-04T00:57:58.880Z,90.70
2018-08-04T01:00:28.186Z,90.70
2018-08-04T01:02:57.479Z,90.70
2018-08-04T01:05:26.751Z,90.70
2018-08-04T01:07:55.965Z,91.00
2018-08-04T01:10:25.089Z,90.70
2018-08-04T01:12:54.304Z,90.80
2018-08-04T01:15:23.527Z,90.80
2018-08-04T01:17:52.610Z,90.70
2018-08-04T01:20:21.886Z,90.80
2018-08-04T01:27:48.563Z,90.90
2018-08-04T01:37:43.910Z,90.90
2018-08-04T01:40:13.212Z,91.00
2018-08-04T01:42:42.495Z,91.00
2018-08-04T01:45:11.806Z,90.90
2018-08-04T01:47:41.159Z,90.90
2018-08-04T01:50:10.406Z,91.00
2018-08-04T01:52:39.566Z,91.00
2018-08-04T01:55:08.807Z,91.00
2018-08-04T01:57:38.045Z,90.90
2018-08-04T02:00:07.521Z,90.80
2018-08-04T02:02:36.825Z,90.70
2018-08-04T02:15:01.199Z,91.00
2018-08-04T02:17:30.504Z,91.00
2018-08-04T02:19:59.751Z,91.10
2018-08-04T02:22:28.856Z,91.00
2018-08-04T02:24:58.091Z,90.90
2018-08-04T02:27:27.200Z,90.90
2018-08-04T02:29:56.527Z,90.90
2018-08-04T02:32:25.754Z,91.00
2018-08-04T02:34:55.057Z,91.00
2018-08-04T02:37:24.335Z,91.10
2018-08-04T02:39:53.548Z,91.20
2018-08-04T02:42:22.786Z,91.20
2018-08-04T02:44:52.047Z,91.20
2018-08-04T02:47:21.318Z,91.10
2018-08-04T02:49:50.561Z,91.00
2018-08-04T02:52:19.845Z,90.90
2018-08-04T02:54:49.146Z,90.90
2018-08-04T02:57:18.440Z,91.00
2018-08-04T02:59:47.749Z,91.00
2018-08-04T03:02:16.953Z,91.20
2018-08-04T03:04:46.237Z,91.30
2018-08-04T03:07:15.527Z,91.30
2018-08-04T03:09:44.741Z,91.40
2018-08-04T03:12:14.024Z,91.40
2018-08-04T03:14:43.251Z,91.30
2018-08-04T03:17:12.469Z,91.40
2018-08-04T03:22:10.408Z,91.60
2018-08-04T03:24:39.671Z,91.50
2018-08-04T03:27:08.906Z,91.60
2018-08-04T03:29:38.147Z,91.60
2018-08-04T03:32:07.978Z,91.60
2018-08-04T03:34:37.231Z,91.40
2018-08-04T03:37:06.512Z,91.50
2018-08-04T03:39:35.834Z,91.40
2018-08-04T03:42:05.176Z,91.50
2018-08-04T03:44:34.371Z,91.60
2018-08-04T03:49:32.398Z,91.50
2018-08-04T03:52:01.719Z,91.50
2018-08-04T03:54:30.940Z,91.50
2018-08-04T03:57:00.137Z,91.50
2018-08-04T03:59:29.612Z,91.50
2018-08-04T04:01:58.988Z,91.60
2018-08-04T04:04:28.211Z,91.60
2018-08-04T04:06:57.558Z,91.60
2018-08-04T04:09:26.917Z,91.50
2018-08-04T04:11:56.226Z,91.60
2018-08-04T04:14:25.525Z,91.60
2018-08-04T04:16:54.728Z,91.60
2018-08-04T04:19:23.987Z,91.70
2018-08-04T04:21:53.312Z,91.60
2018-08-04T04:24:22.581Z,91.60
2018-08-04T04:26:51.812Z,91.60
2018-08-04T04:29:21.070Z,91.60
2018-08-04T04:31:50.248Z,91.90
2018-08-04T04:34:31.457Z,91.60
2018-08-04T04:37:00.752Z,91.80
2018-08-04T04:39:30.022Z,91.40
2018-08-04T04:41:59.326Z,91.50
2018-08-04T04:44:28.544Z,91.50
2018-08-04T04:49:26.393Z,91.40
2018-08-04T04:51:55.576Z,91.40
2018-08-04T04:54:24.830Z,91.40
2018-08-04T04:56:54.052Z,91.50
2018-08-04T04:59:23.326Z,91.60
2018-08-04T05:04:21.489Z,91.60
2018-08-04T05:06:50.742Z,91.70
2018-08-04T05:09:20.069Z,91.70
2018-08-04T05:11:49.421Z,91.70
2018-08-04T05:16:47.523Z,91.60
2018-08-04T05:19:16.828Z,91.90
2018-08-04T05:21:46.627Z,91.60
2018-08-04T05:26:45.053Z,91.50
2018-08-04T05:29:14.686Z,91.50
2018-08-04T05:31:44.185Z,91.50
2018-08-04T05:34:13.684Z,91.50
2018-08-04T05:36:43.060Z,91.50
2018-08-04T05:39:13.540Z,91.40
2018-08-04T05:41:42.861Z,91.30
2018-08-04T05:46:40.903Z,91.10
2018-08-04T05:49:10.216Z,91.10
2018-08-04T05:51:39.474Z,91.30
2018-08-04T05:54:08.730Z,91.20
2018-08-04T05:56:37.995Z,91.20
2018-08-04T05:59:07.395Z,91.20
2018-08-04T06:01:36.716Z,91.40
2018-08-04T06:04:06.150Z,91.40
2018-08-04T06:06:35.467Z,91.30
2018-08-04T06:11:35.570Z,91.40
2018-08-04T06:14:04.968Z,91.50
2018-08-04T06:16:34.922Z,91.30
2018-08-04T06:21:32.893Z,91.30
2018-08-04T06:24:02.122Z,91.30
2018-08-04T06:26:31.409Z,91.30
2018-08-04T06:29:00.635Z,91.30
2018-08-04T06:31:29.814Z,91.30
2018-08-04T06:33:59.136Z,91.30
2018-08-04T06:36:28.332Z,91.30
2018-08-04T06:38:57.586Z,91.30
2018-08-04T06:41:26.779Z,91.10
2018-08-04T06:43:56.268Z,91.10
2018-08-04T06:46:25.530Z,91.00
2018-08-04T06:48:55.068Z,90.80
2018-08-04T06:51:24.366Z,90.60
2018-08-04T06:53:53.600Z,90.40
2018-08-04T06:56:22.906Z,90.10
2018-08-04T07:01:21.013Z,88.70
2018-08-04T07:03:50.280Z,87.70
2018-08-04T07:06:19.548Z,86.60
2018-08-04T07:08:48.855Z,85.70
2018-08-04T07:11:18.085Z,84.60
2018-08-04T07:13:47.264Z,82.10
2018-08-04T07:16:16.498Z,81.20
2018-08-04T07:21:14.607Z,79.00
2018-08-04T07:23:43.805Z,77.20
2018-08-04T07:26:13.004Z,76.20
2018-08-04T07:28:42.694Z,74.70
2018-08-04T07:31:12.020Z,74.00
2018-08-04T07:33:41.297Z,72.10
2018-08-04T07:36:10.603Z,71.60
2018-08-04T07:41:08.711Z,70.10
2018-08-04T07:43:38.105Z,68.90
2018-08-04T07:46:07.446Z,68.30
2018-08-04T07:48:36.740Z,67.10
2018-08-04T07:51:06.053Z,65.00
2018-08-04T07:53:35.336Z,62.50
2018-08-04T07:56:04.601Z,63.20
2018-08-04T08:01:02.612Z,60.90
2018-08-04T08:03:31.865Z,59.50
2018-08-04T08:06:01.120Z,58.70
2018-08-04T08:08:30.409Z,58.60
2018-08-04T08:10:59.690Z,57.80
2018-08-04T08:13:28.903Z,57.40
2018-08-04T08:15:58.166Z,55.50
2018-08-04T08:18:27.414Z,55.90
2018-08-04T08:20:56.666Z,53.10
2018-08-04T08:23:25.955Z,55.50
2018-08-04T08:26:10.966Z,55.30
2018-08-04T08:28:41.319Z,52.50
2018-08-04T08:31:10.591Z,54.50
2018-08-04T08:33:40.751Z,54.30
2018-08-04T08:36:10.529Z,53.20
2018-08-04T08:38:39.793Z,53.40
2018-08-04T08:41:09.106Z,51.70
2018-08-04T08:43:38.447Z,50.90
2018-08-04T08:46:07.806Z,52.10
2018-08-04T08:48:37.083Z,51.70
2018-08-04T08:51:06.374Z,52.80
2018-08-04T08:53:35.702Z,52.50
2018-08-04T08:56:05.162Z,50.70
2018-08-04T08:58:34.419Z,51.00
2018-08-04T09:01:03.777Z,47.60
2018-08-04T09:03:33.036Z,49.30
2018-08-04T09:06:02.319Z,50.00
2018-08-04T09:08:31.545Z,49.50
2018-08-04T09:11:00.869Z,49.50
2018-08-04T09:13:30.220Z,48.90
2018-08-04T09:15:59.492Z,47.40
2018-08-04T09:18:28.837Z,47.20
2018-08-04T09:23:26.904Z,45.70
2018-08-04T09:25:56.148Z,47.40
2018-08-04T09:28:25.314Z,42.80
2018-08-04T09:30:54.567Z,41.20
2018-08-04T09:33:23.880Z,43.00
2018-08-04T09:35:53.265Z,39.80
2018-08-04T09:38:22.556Z,43.20
2018-08-04T09:40:51.934Z,40.90
2018-08-04T09:43:21.180Z,41.10
2018-08-04T09:45:50.506Z,39.40
2018-08-04T09:48:19.886Z,38.90
2018-08-04T09:50:49.287Z,42.00
2018-08-04T09:53:18.531Z,43.00
2018-08-04T09:55:47.931Z,43.40
2018-08-04T09:58:17.286Z,42.30
2018-08-04T10:00:51.637Z,41.30
2018-08-04T10:03:20.891Z,36.50
2018-08-04T10:05:50.194Z,36.40
2018-08-04T10:08:19.506Z,37.90
2018-08-04T10:10:48.862Z,37.80
2018-08-04T10:15:46.829Z,36.60
2018-08-04T10:18:16.078Z,37.90
2018-08-04T10:20:45.346Z,38.30
2018-08-04T10:23:14.587Z,35.70
2018-08-04T10:25:43.861Z,37.50
2018-08-04T10:30:41.858Z,35.30
2018-08-04T10:33:11.094Z,37.80
2018-08-04T10:35:40.364Z,35.10
2018-08-04T10:38:09.697Z,33.50
2018-08-04T10:40:38.884Z,33.10
2018-08-04T10:43:08.149Z,34.10
2018-08-04T10:45:37.358Z,33.50
2018-08-04T10:48:06.702Z,32.40
2018-08-04T10:50:36.006Z,33.40
2018-08-04T10:53:05.253Z,35.20
2018-08-04T10:55:34.538Z,32.20
2018-08-04T10:58:03.891Z,31.40
2018-08-04T11:00:33.198Z,30.40
2018-08-04T11:03:02.559Z,30.80
2018-08-04T11:05:31.803Z,31.40
2018-08-04T11:08:01.154Z,30.80
2018-08-04T11:10:30.444Z,31.80
2018-08-04T11:12:59.811Z,32.00
2018-08-04T11:15:29.137Z,32.80
2018-08-04T11:17:58.442Z,31.00
2018-08-04T11:20:27.726Z,29.40
2018-08-04T11:22:57.060Z,28.80
2018-08-04T11:25:26.336Z,29.50
2018-08-04T11:27:55.614Z,30.20
2018-08-04T11:30:24.940Z,28.80
2018-08-04T11:32:54.158Z,30.90
2018-08-04T11:35:23.463Z,29.60
2018-08-04T11:37:52.834Z,29.90
2018-08-04T11:40:22.180Z,29.50
2018-08-04T11:45:20.164Z,28.80
2018-08-04T11:47:49.411Z,29.00
2018-08-04T11:50:18.676Z,28.30
2018-08-04T11:52:48.078Z,28.60
2018-08-04T12:00:15.035Z,28.20
2018-08-04T12:02:44.348Z,28.00
2018-08-04T12:07:42.519Z,27.20
2018-08-04T12:10:11.737Z,28.30
2018-08-04T12:15:09.956Z,27.80
2018-08-04T12:17:39.337Z,27.00
2018-08-04T12:20:08.622Z,27.80
2018-08-04T12:22:37.926Z,27.60
2018-08-04T12:25:07.324Z,27.00
2018-08-04T12:27:36.695Z,27.10
2018-08-04T12:30:07.321Z,27.40
2018-08-04T12:32:36.821Z,27.30
2018-08-04T12:35:06.406Z,27.60
2018-08-04T12:37:35.717Z,28.20
2018-08-04T12:40:05.115Z,28.80
2018-08-04T12:42:34.540Z,27.90
2018-08-04T12:45:04.166Z,28.10
2018-08-04T12:47:33.484Z,28.80
2018-08-04T12:50:02.721Z,29.80
2018-08-04T12:55:00.803Z,31.60
2018-08-04T12:57:30.217Z,29.00
2018-08-04T12:59:59.466Z,30.00
2018-08-04T13:02:28.844Z,29.00
2018-08-04T13:04:58.179Z,28.50
2018-08-04T13:07:28.465Z,28.90
2018-08-04T13:09:57.807Z,28.70
2018-08-04T13:12:27.076Z,29.30
2018-08-04T13:14:56.412Z,26.70
2018-08-04T13:17:25.900Z,26.70
2018-08-04T13:19:55.690Z,25.80
2018-08-04T13:22:25.101Z,26.60
2018-08-04T13:24:54.606Z,25.50
2018-08-04T13:27:23.898Z,26.30
2018-08-04T13:29:53.127Z,26.10
2018-08-04T13:32:22.324Z,27.70
2018-08-04T13:34:51.506Z,25.20
2018-08-04T13:37:20.740Z,25.70
2018-08-04T13:39:50.030Z,25.80
2018-08-04T13:42:19.161Z,24.60
2018-08-04T13:44:48.439Z,24.30
2018-08-04T13:47:17.647Z,25.30
2018-08-04T13:49:46.867Z,24.50
2018-08-04T13:52:16.119Z,24.90
2018-08-04T13:54:47.485Z,23.70
2018-08-04T13:57:17.067Z,23.00
2018-08-04T13:59:46.397Z,23.00
2018-08-04T14:02:15.703Z,23.30
2018-08-04T14:04:45.008Z,25.10
2018-08-04T14:07:14.234Z,23.80
2018-08-04T14:09:43.613Z,23.50
2018-08-04T14:12:13.008Z,22.10
2018-08-04T14:14:42.405Z,22.70
2018-08-04T14:17:11.645Z,21.60
2018-08-04T14:22:09.617Z,23.70
2018-08-04T14:27:07.519Z,23.60
2018-08-04T14:32:05.435Z,23.20
2018-08-04T14:34:34.786Z,22.70
2018-08-04T14:37:03.989Z,23.40
2018-08-04T14:39:33.221Z,22.70
2018-08-04T14:42:02.464Z,21.40
2018-08-04T14:44:31.665Z,21.10
2018-08-04T14:47:00.780Z,20.30
2018-08-04T14:49:30.004Z,20.50
2018-08-04T14:51:59.182Z,21.20
2018-08-04T14:54:28.438Z,21.10
2018-08-04T14:56:57.622Z,21.50
2018-08-04T14:59:26.730Z,22.20
2018-08-04T15:01:55.890Z,21.80
2018-08-04T15:06:53.834Z,21.40
2018-08-04T15:09:23.033Z,21.90
2018-08-04T15:11:52.262Z,23.20
2018-08-04T15:14:21.484Z,22.50
2018-08-04T15:16:50.746Z,23.30
2018-08-04T15:19:19.949Z,21.10
2018-08-04T15:21:49.126Z,23.20
2018-08-04T15:24:18.393Z,23.10
2018-08-04T15:26:47.645Z,23.50
2018-08-04T15:29:16.846Z,23.60
2018-08-04T15:31:45.986Z,24.70
2018-08-04T15:34:15.275Z,24.40
2018-08-04T15:36:44.375Z,24.30
2018-08-04T15:39:13.585Z,23.50
2018-08-04T15:41:42.806Z,24.90
2018-08-04T15:44:12.096Z,25.00
2018-08-04T15:46:41.416Z,23.00
2018-08-04T15:49:10.706Z,24.60
2018-08-04T15:51:39.961Z,25.60
2018-08-04T15:56:37.954Z,25.80
2018-08-04T15:59:07.238Z,26.60
2018-08-04T16:01:36.434Z,25.70
2018-08-04T16:04:05.598Z,25.80
2018-08-04T16:06:34.866Z,26.40
2018-08-04T16:09:04.422Z,27.50
2018-08-04T16:11:33.669Z,28.90
2018-08-04T16:14:02.871Z,29.60
2018-08-04T16:16:32.175Z,31.90
2018-08-04T16:19:01.595Z,32.90
2018-08-04T16:21:30.786Z,35.70
2018-08-04T16:24:00.010Z,37.00
2018-08-04T16:26:30.723Z,39.20
2018-08-04T16:29:00.083Z,40.90
2018-08-04T16:31:29.484Z,41.90
2018-08-04T16:33:58.780Z,42.30
2018-08-04T16:36:28.058Z,43.40
2018-08-04T16:38:57.314Z,43.90
2018-08-04T16:41:28.640Z,45.00
2018-08-04T16:43:58.131Z,45.30
2018-08-04T16:46:27.246Z,46.30
2018-08-04T16:51:25.185Z,46.80
2018-08-04T16:53:54.406Z,46.50
2018-08-04T16:56:24.120Z,46.80
2018-08-04T16:58:53.546Z,47.40
2018-08-04T17:03:51.496Z,48.40
2018-08-04T17:06:20.790Z,49.30
2018-08-04T17:08:50.011Z,49.90
2018-08-04T17:11:19.266Z,50.70
2018-08-04T17:13:48.445Z,51.20
2018-08-04T17:18:46.325Z,51.30
2018-08-04T17:21:15.587Z,52.00
2018-08-04T17:23:45.101Z,52.30
2018-08-04T17:26:14.446Z,52.20
2018-08-04T17:28:43.716Z,52.30
2018-08-04T17:31:12.978Z,52.80
2018-08-04T17:33:42.249Z,52.90
2018-08-04T17:36:11.380Z,53.70
2018-08-04T17:38:40.566Z,54.60
2018-08-04T17:41:09.786Z,54.80
2018-08-04T17:43:38.978Z,55.10
2018-08-04T17:46:08.423Z,55.20
2018-08-04T17:51:06.563Z,56.60
2018-08-04T17:53:35.861Z,57.00
2018-08-04T17:56:05.174Z,57.40
2018-08-04T17:58:34.510Z,58.00
2018-08-04T18:01:03.861Z,58.50
2018-08-04T18:03:33.117Z,59.10
2018-08-04T18:06:02.323Z,59.40
2018-08-04T18:08:31.567Z,59.60
2018-08-04T18:11:00.776Z,60.10
2018-08-04T18:13:30.089Z,60.50
2018-08-04T18:15:59.307Z,60.80
2018-08-04T18:18:28.509Z,60.90
2018-08-04T18:20:57.686Z,61.50
2018-08-04T18:23:27.026Z,62.00
2018-08-04T18:25:56.286Z,62.60
2018-08-04T18:28:25.570Z,62.90
2018-08-04T18:30:54.878Z,62.90
2018-08-04T18:33:24.199Z,63.10
2018-08-04T18:35:53.472Z,62.80
2018-08-04T18:38:22.848Z,63.50
2018-08-04T18:40:52.132Z,63.80
2018-08-04T18:45:50.228Z,63.90
2018-08-04T18:48:19.548Z,64.30
2018-08-04T18:50:48.772Z,64.30
2018-08-04T18:53:18.046Z,64.80
2018-08-04T18:55:47.293Z,64.90
2018-08-04T18:58:16.525Z,65.10
2018-08-04T19:00:45.802Z,65.20
2018-08-04T19:03:15.043Z,65.90
2018-08-04T19:05:45.525Z,66.00
2018-08-04T19:08:14.829Z,67.30
2018-08-04T19:10:44.026Z,66.70
2018-08-04T19:13:13.256Z,66.90
2018-08-04T19:15:42.489Z,66.90
2018-08-04T19:18:11.779Z,67.00
2018-08-04T19:20:41.095Z,67.30
2018-08-04T19:23:10.329Z,67.60
2018-08-04T19:25:39.506Z,67.60
2018-08-04T19:28:08.632Z,68.00
2018-08-04T19:30:37.860Z,68.00
2018-08-04T19:33:07.098Z,68.40
2018-08-04T19:35:36.372Z,68.50
2018-08-04T19:38:05.687Z,68.80
2018-08-04T19:40:34.840Z,69.20
2018-08-04T19:45:32.949Z,69.90
2018-08-04T19:48:02.082Z,70.60
2018-08-04T19:50:31.320Z,70.50
2018-08-04T19:53:00.610Z,70.70
2018-08-04T19:55:29.847Z,71.50
2018-08-04T19:57:59.147Z,70.50
2018-08-04T20:00:28.388Z,70.60
2018-08-04T20:03:04.212Z,70.90
2018-08-04T20:05:33.449Z,71.10
2018-08-04T20:08:02.767Z,71.30
2018-08-04T20:10:32.072Z,71.70
2018-08-04T20:13:01.275Z,72.00
2018-08-04T20:15:30.499Z,72.50
2018-08-04T20:17:59.766Z,72.30
2018-08-04T20:20:29.012Z,72.80
2018-08-04T20:22:58.266Z,72.60
2018-08-04T20:25:27.443Z,73.20
2018-08-04T20:27:56.726Z,73.30
2018-08-04T20:30:26.140Z,73.40
2018-08-04T20:32:55.446Z,73.00
2018-08-04T20:35:24.775Z,73.20
2018-08-04T20:40:22.846Z,73.90
2018-08-04T20:42:52.009Z,74.10
2018-08-04T20:45:21.159Z,73.50
2018-08-04T20:50:19.083Z,73.90
2018-08-04T20:52:48.364Z,74.70
2018-08-04T20:55:17.467Z,74.60
2018-08-04T20:57:46.667Z,75.10
2018-08-04T21:00:15.865Z,75.30
2018-08-04T21:02:46.468Z,75.60
2018-08-04T21:05:17.214Z,75.10
2018-08-04T21:07:48.144Z,74.70
2018-08-04T21:10:17.488Z,74.60
2018-08-04T21:12:46.792Z,75.00
2018-08-04T21:15:15.978Z,75.20
2018-08-04T21:17:45.092Z,75.20
2018-08-04T21:20:14.353Z,75.40
2018-08-04T21:25:12.191Z,76.30
2018-08-04T21:27:41.511Z,76.60
2018-08-04T21:30:10.719Z,76.00
2018-08-04T21:35:08.706Z,76.20
2018-08-04T21:37:37.870Z,76.20
2018-08-04T21:40:07.484Z,76.80
2018-08-04T21:42:36.835Z,77.10
2018-08-04T21:45:06.265Z,76.60
2018-08-04T21:47:35.415Z,76.00
2018-08-04T21:50:04.759Z,75.90
2018-08-04T21:52:33.951Z,75.80
2018-08-04T21:55:03.164Z,76.20
2018-08-04T21:57:32.317Z,76.90
2018-08-04T22:00:01.580Z,76.80
2018-08-04T22:02:32.700Z,76.90
2018-08-04T22:05:01.881Z,76.70
2018-08-04T22:07:43.884Z,76.70
2018-08-04T22:10:13.559Z,76.80
2018-08-04T22:12:43.433Z,76.60
2018-08-04T22:15:13.885Z,76.30
2018-08-04T22:17:43.125Z,76.50
2018-08-04T22:20:13.393Z,76.60
2018-08-04T22:22:43.441Z,76.80
2018-08-04T22:25:16.916Z,77.20
2018-08-04T22:27:46.346Z,77.00
2018-08-04T22:30:16.909Z,77.40
2018-08-04T22:32:46.826Z,77.30
2018-08-04T22:35:16.168Z,77.20
2018-08-04T22:37:45.659Z,77.40
2018-08-04T22:40:15.666Z,77.50
2018-08-04T22:42:45.294Z,77.60
2018-08-04T22:46:11.208Z,77.40
2018-08-04T22:48:40.886Z,77.30
2018-08-04T22:51:10.386Z,77.90
2018-08-04T22:53:39.656Z,78.00
2018-08-04T22:56:08.848Z,78.50
2018-08-04T22:58:38.179Z,78.70
2018-08-04T23:01:08.529Z,78.80
2018-08-04T23:03:37.917Z,78.90
2018-08-04T23:06:07.195Z,79.10
2018-08-04T23:08:36.484Z,79.10
2018-08-04T23:11:05.826Z,79.40
2018-08-04T23:13:35.070Z,79.30
2018-08-04T23:16:04.362Z,79.50
2018-08-04T23:18:33.548Z,79.50
2018-08-04T23:21:02.805Z,79.90
2018-08-04T23:23:32.084Z,80.10
2018-08-04T23:26:01.371Z,80.40
2018-08-04T23:28:30.582Z,80.40
2018-08-04T23:30:59.819Z,80.60
2018-08-04T23:33:30.641Z,80.70
2018-08-04T23:35:59.936Z,81.30
2018-08-04T23:40:57.929Z,81.50
2018-08-04T23:43:27.205Z,81.60
2018-08-04T23:45:56.591Z,81.70
2018-08-04T23:48:25.819Z,82.00
2018-08-04T23:50:55.093Z,82.10
2018-08-04T23:53:24.314Z,82.30
2018-08-04T23:58:22.350Z,82.40
